createdAt,value
2018-08-21T00:00:43.487Z,1012.58
2018-08-21T00:01:43.477Z,1012.56
2018-08-21T00:02:43.464Z,1012.57
2018-08-21T00:03:43.453Z,1012.61
2018-08-21T00:04:43.441Z,1012.57
2018-08-21T00:05:43.432Z,1012.58
2018-08-21T00:06:43.425Z,1012.6
2018-08-21T00:07:43.408Z,1012.59
2018-08-21T00:08:43.395Z,1012.56
2018-08-21T00:09:43.388Z,1012.54
2018-08-21T00:10:43.378Z,1012.55
2018-08-21T00:11:43.364Z,1012.54
2018-08-21T00:12:43.358Z,1012.54
2018-08-21T00:13:43.339Z,1012.54
2018-08-21T00:14:43.329Z,1012.53
2018-08-21T00:15:43.317Z,1012.48
2018-08-21T00:16:43.309Z,1012.51
2018-08-21T00:17:43.293Z,1012.49
2018-08-21T00:18:43.284Z,1012.5
2018-08-21T00:19:43.273Z,1012.46
2018-08-21T00:20:43.259Z,1012.45
2018-08-21T00:21:43.252Z,1012.45
2018-08-21T00:22:43.238Z,1012.43
2018-08-21T00:23:43.227Z,1012.42
2018-08-21T00:24:43.213Z,1012.43
2018-08-21T00:25:43.203Z,1012.41
2018-08-21T00:26:43.195Z,1012.48
2018-08-21T00:27:43.179Z,1012.43
2018-08-21T00:28:43.168Z,1012.44
2018-08-21T00:29:43.161Z,1012.41
2018-08-21T00:30:43.146Z,1012.43
2018-08-21T00:31:43.136Z,1012.43
2018-08-21T00:32:43.126Z,1012.38
2018-08-21T00:33:43.111Z,1012.39
2018-08-21T00:34:43.097Z,1012.38
2018-08-21T00:35:43.092Z,1012.37
2018-08-21T00:36:43.077Z,1012.4
2018-08-21T00:37:43.064Z,1012.38
2018-08-21T00:38:43.061Z,1012.37
2018-08-21T00:39:43.041Z,1012.36
2018-08-21T00:40:43.033Z,1012.37
2018-08-21T00:41:43.018Z,1012.35
2018-08-21T00:42:43.006Z,1012.34
2018-08-21T00:43:42.995Z,1012.36
2018-08-21T00:44:42.983Z,1012.36
2018-08-21T00:45:42.973Z,1012.36
2018-08-21T00:46:42.961Z,1012.37
2018-08-21T00:47:42.949Z,1012.31
2018-08-21T00:48:42.936Z,1012.31
2018-08-21T00:49:42.925Z,1012.36
2018-08-21T00:50:43.118Z,1012.36
2018-08-21T00:51:42.904Z,1012.35
2018-08-21T00:52:42.890Z,1012.34
2018-08-21T00:53:42.880Z,1012.33
2018-08-21T00:54:42.867Z,1012.33
2018-08-21T00:55:42.858Z,1012.32
2018-08-21T00:56:42.847Z,1012.33
2018-08-21T00:57:42.834Z,1012.32
2018-08-21T00:58:42.820Z,1012.33
2018-08-21T00:59:42.810Z,1012.38
2018-08-21T01:00:42.798Z,1012.42
2018-08-21T01:01:42.790Z,1012.42
2018-08-21T01:02:42.772Z,1012.4
2018-08-21T01:03:42.759Z,1012.41
2018-08-21T01:04:42.750Z,1012.4
2018-08-21T01:05:42.741Z,1012.39
2018-08-21T01:06:42.724Z,1012.38
2018-08-21T01:07:42.712Z,1012.39
2018-08-21T01:08:42.705Z,1012.4
2018-08-21T01:09:42.690Z,1012.38
2018-08-21T01:10:42.681Z,1012.35
2018-08-21T01:11:42.666Z,1012.4
2018-08-21T01:12:42.653Z,1012.39
2018-08-21T01:13:42.641Z,1012.39
2018-08-21T01:14:42.632Z,1012.4
2018-08-21T01:15:42.620Z,1012.41
2018-08-21T01:16:42.607Z,1012.39
2018-08-21T01:17:42.600Z,1012.42
2018-08-21T01:18:42.582Z,1012.4
2018-08-21T01:19:42.571Z,1012.44
2018-08-21T01:20:42.559Z,1012.44
2018-08-21T01:21:42.551Z,1012.45
2018-08-21T01:22:42.534Z,1012.43
2018-08-21T01:23:42.523Z,1012.4
2018-08-21T01:24:42.514Z,1012.44
2018-08-21T01:25:42.500Z,1012.45
2018-08-21T01:26:42.486Z,1012.42
2018-08-21T01:27:42.484Z,1012.41
2018-08-21T01:28:42.464Z,1012.43
2018-08-21T01:29:42.451Z,1012.43
2018-08-21T01:30:42.441Z,1012.46
2018-08-21T01:31:42.429Z,1012.46
2018-08-21T01:32:42.414Z,1012.45
2018-08-21T01:33:42.403Z,1012.46
2018-08-21T01:34:42.391Z,1012.47
2018-08-21T01:35:42.380Z,1012.44
2018-08-21T01:36:42.368Z,1012.45
2018-08-21T01:37:42.356Z,1012.46
2018-08-21T01:38:42.350Z,1012.46
2018-08-21T01:39:42.332Z,1012.47
2018-08-21T01:40:42.319Z,1012.49
2018-08-21T01:41:42.312Z,1012.47
2018-08-21T01:42:42.338Z,1012.46
2018-08-21T01:43:42.283Z,1012.45
2018-08-21T01:44:42.272Z,1012.46
2018-08-21T01:45:42.258Z,1012.5
2018-08-21T01:46:42.247Z,1012.49
2018-08-21T01:47:42.233Z,1012.49
2018-08-21T01:48:42.222Z,1012.46
2018-08-21T01:49:42.211Z,1012.55
2018-08-21T01:50:42.197Z,1012.5
2018-08-21T01:51:42.203Z,1012.49
2018-08-21T01:52:42.175Z,1012.49
2018-08-21T01:53:42.166Z,1012.51
2018-08-21T01:54:42.149Z,1012.51
2018-08-21T01:55:42.141Z,1012.49
2018-08-21T01:56:42.131Z,1012.5
2018-08-21T01:57:42.111Z,1012.49
2018-08-21T01:58:42.100Z,1012.51
2018-08-21T01:59:42.094Z,1012.52
2018-08-21T02:00:42.079Z,1012.48
2018-08-21T02:01:42.067Z,1012.45
2018-08-21T02:02:42.053Z,1012.46
2018-08-21T02:03:42.040Z,1012.45
2018-08-21T02:04:42.031Z,1012.45
2018-08-21T02:05:42.014Z,1012.44
2018-08-21T02:06:42.003Z,1012.45
2018-08-21T02:07:41.991Z,1012.47
2018-08-21T02:08:41.977Z,1012.47
2018-08-21T02:09:41.965Z,1012.45
2018-08-21T02:10:41.955Z,1012.47
2018-08-21T02:11:41.941Z,1012.45
2018-08-21T02:12:41.928Z,1012.45
2018-08-21T02:13:41.917Z,1012.45
2018-08-21T02:14:41.904Z,1012.45
2018-08-21T02:15:41.894Z,1012.45
2018-08-21T02:16:41.882Z,1012.42
2018-08-21T02:17:41.869Z,1012.45
2018-08-21T02:18:41.856Z,1012.45
2018-08-21T02:19:41.845Z,1012.46
2018-08-21T02:20:41.831Z,1012.49
2018-08-21T02:21:41.818Z,1012.48
2018-08-21T02:22:41.807Z,1012.49
2018-08-21T02:23:41.794Z,1012.48
2018-08-21T02:24:41.782Z,1012.48
2018-08-21T02:25:41.770Z,1012.47
2018-08-21T02:26:41.758Z,1012.48
2018-08-21T02:27:41.746Z,1012.48
2018-08-21T02:28:41.739Z,1012.47
2018-08-21T02:29:41.721Z,1012.43
2018-08-21T02:30:41.709Z,1012.45
2018-08-21T02:31:41.697Z,1012.44
2018-08-21T02:32:41.721Z,1012.45
2018-08-21T02:33:41.672Z,1012.42
2018-08-21T02:34:41.661Z,1012.46
2018-08-21T02:35:41.651Z,1012.49
2018-08-21T02:36:41.635Z,1012.5
2018-08-21T02:37:41.625Z,1012.49
2018-08-21T02:38:41.617Z,1012.48
2018-08-21T02:39:41.600Z,1012.47
2018-08-21T02:40:41.585Z,1012.48
2018-08-21T02:41:41.578Z,1012.47
2018-08-21T02:42:41.565Z,1012.46
2018-08-21T02:43:41.549Z,1012.48
2018-08-21T02:44:41.537Z,1012.46
2018-08-21T02:45:41.526Z,1012.46
2018-08-21T02:46:41.514Z,1012.45
2018-08-21T02:47:41.501Z,1012.47
2018-08-21T02:48:41.488Z,1012.41
2018-08-21T02:49:41.475Z,1012.43
2018-08-21T02:50:41.669Z,1012.41
2018-08-21T02:51:41.453Z,1012.42
2018-08-21T02:52:41.438Z,1012.41
2018-08-21T02:53:41.428Z,1012.39
2018-08-21T02:54:41.414Z,1012.39
2018-08-21T02:55:41.404Z,1012.39
2018-08-21T02:56:41.395Z,1012.43
2018-08-21T02:57:41.377Z,1012.41
2018-08-21T02:58:41.379Z,1012.36
2018-08-21T02:59:41.353Z,1012.36
2018-08-21T03:00:41.341Z,1012.34
2018-08-21T03:01:41.330Z,1012.31
2018-08-21T03:02:41.315Z,1012.3
2018-08-21T03:03:41.308Z,1012.3
2018-08-21T03:04:41.292Z,1012.28
2018-08-21T03:05:41.278Z,1012.27
2018-08-21T03:06:41.272Z,1012.26
2018-08-21T03:07:41.251Z,1012.28
2018-08-21T03:08:41.245Z,1012.29
2018-08-21T03:09:41.229Z,1012.29
2018-08-21T03:10:41.221Z,1012.3
2018-08-21T03:11:41.206Z,1012.32
2018-08-21T03:12:41.197Z,1012.31
2018-08-21T03:13:41.181Z,1012.31
2018-08-21T03:14:41.168Z,1012.31
2018-08-21T03:15:41.157Z,1012.31
2018-08-21T03:16:41.144Z,1012.29
2018-08-21T03:17:41.135Z,1012.26
2018-08-21T03:18:41.123Z,1012.27
2018-08-21T03:19:41.109Z,1012.24
2018-08-21T03:20:41.097Z,1012.23
2018-08-21T03:21:41.185Z,1012.22
2018-08-21T03:22:41.076Z,1012.22
2018-08-21T03:23:41.063Z,1012.25
2018-08-21T03:24:41.048Z,1012.24
2018-08-21T03:25:41.046Z,1012.21
2018-08-21T03:26:41.032Z,1012.23
2018-08-21T03:27:41.011Z,1012.25
2018-08-21T03:28:41.001Z,1012.27
2018-08-21T03:29:40.986Z,1012.26
2018-08-21T03:30:40.974Z,1012.24
2018-08-21T03:31:40.963Z,1012.23
2018-08-21T03:32:40.953Z,1012.26
2018-08-21T03:33:40.939Z,1012.22
2018-08-21T03:34:40.928Z,1012.18
2018-08-21T03:35:40.917Z,1012.19
2018-08-21T03:36:40.908Z,1012.15
2018-08-21T03:37:40.891Z,1012.18
2018-08-21T03:38:40.880Z,1012.18
2018-08-21T03:39:40.870Z,1012.21
2018-08-21T03:40:40.854Z,1012.21
2018-08-21T03:41:40.842Z,1012.19
2018-08-21T03:42:40.834Z,1012.18
2018-08-21T03:43:40.824Z,1012.2
2018-08-21T03:44:40.806Z,1012.16
2018-08-21T03:45:40.796Z,1012.15
2018-08-21T03:46:40.782Z,1012.18
2018-08-21T03:47:40.772Z,1012.22
2018-08-21T03:48:40.783Z,1012.24
2018-08-21T03:49:40.750Z,1012.23
2018-08-21T03:50:40.736Z,1012.23
2018-08-21T03:51:40.722Z,1012.25
2018-08-21T03:52:40.711Z,1012.26
2018-08-21T03:53:40.703Z,1012.23
2018-08-21T03:54:40.685Z,1012.23
2018-08-21T03:55:40.674Z,1012.27
2018-08-21T03:56:40.662Z,1012.24
2018-08-21T03:57:40.654Z,1012.25
2018-08-21T03:58:40.637Z,1012.26
2018-08-21T03:59:40.628Z,1012.26
2018-08-21T04:00:40.618Z,1012.26
2018-08-21T04:01:40.604Z,1012.3
2018-08-21T04:02:40.591Z,1012.3
2018-08-21T04:03:40.578Z,1012.27
2018-08-21T04:04:40.566Z,1012.3
2018-08-21T04:05:40.559Z,1012.3
2018-08-21T04:06:40.541Z,1012.29
2018-08-21T04:07:40.529Z,1012.31
2018-08-21T04:08:40.525Z,1012.28
2018-08-21T04:09:40.508Z,1012.31
2018-08-21T04:10:40.514Z,1012.28
2018-08-21T04:11:40.483Z,1012.29
2018-08-21T04:12:40.469Z,1012.29
2018-08-21T04:13:40.456Z,1012.31
2018-08-21T04:14:40.448Z,1012.33
2018-08-21T04:15:40.432Z,1012.37
2018-08-21T04:16:40.420Z,1012.37
2018-08-21T04:17:40.412Z,1012.35
2018-08-21T04:18:40.396Z,1012.36
2018-08-21T04:19:40.388Z,1012.39
2018-08-21T04:20:40.372Z,1012.43
2018-08-21T04:21:40.359Z,1012.43
2018-08-21T04:22:40.347Z,1012.48
2018-08-21T04:23:40.334Z,1012.46
2018-08-21T04:24:40.383Z,1012.48
2018-08-21T04:25:40.314Z,1012.48
2018-08-21T04:26:40.298Z,1012.51
2018-08-21T04:27:40.285Z,1012.48
2018-08-21T04:28:40.274Z,1012.49
2018-08-21T04:29:40.266Z,1012.53
2018-08-21T04:30:40.247Z,1012.51
2018-08-21T04:31:40.242Z,1012.51
2018-08-21T04:32:40.313Z,1012.52
2018-08-21T04:33:40.213Z,1012.53
2018-08-21T04:34:40.200Z,1012.56
2018-08-21T04:35:40.186Z,1012.55
2018-08-21T04:36:40.186Z,1012.55
2018-08-21T04:37:40.167Z,1012.55
2018-08-21T04:38:40.153Z,1012.55
2018-08-21T04:39:40.138Z,1012.5
2018-08-21T04:40:40.125Z,1012.49
2018-08-21T04:41:40.128Z,1012.49
2018-08-21T04:42:40.103Z,1012.5
2018-08-21T04:43:40.090Z,1012.52
2018-08-21T04:44:40.076Z,1012.51
2018-08-21T04:45:40.061Z,1012.52
2018-08-21T04:46:40.052Z,1012.55
2018-08-21T04:47:40.039Z,1012.55
2018-08-21T04:48:40.026Z,1012.51
2018-08-21T04:49:40.023Z,1012.55
2018-08-21T04:50:40.204Z,1012.56
2018-08-21T04:51:39.990Z,1012.54
2018-08-21T04:52:39.978Z,1012.51
2018-08-21T04:53:39.973Z,1012.52
2018-08-21T04:54:39.954Z,1012.54
2018-08-21T04:55:39.941Z,1012.53
2018-08-21T04:56:39.933Z,1012.57
2018-08-21T04:57:39.918Z,1012.59
2018-08-21T04:58:40.004Z,1012.59
2018-08-21T04:59:39.894Z,1012.57
2018-08-21T05:00:39.879Z,1012.58
2018-08-21T05:01:39.867Z,1012.6
2018-08-21T05:02:39.868Z,1012.57
2018-08-21T05:03:39.843Z,1012.59
2018-08-21T05:04:39.832Z,1012.58
2018-08-21T05:05:39.835Z,1012.55
2018-08-21T05:06:39.807Z,1012.55
2018-08-21T05:07:39.794Z,1012.56
2018-08-21T05:08:39.783Z,1012.57
2018-08-21T05:09:39.774Z,1012.56
2018-08-21T05:10:39.762Z,1012.59
2018-08-21T05:11:39.749Z,1012.59
2018-08-21T05:12:39.766Z,1012.6
2018-08-21T05:13:39.728Z,1012.6
2018-08-21T05:14:39.711Z,1012.61
2018-08-21T05:15:39.698Z,1012.62
2018-08-21T05:16:39.687Z,1012.61
2018-08-21T05:17:39.709Z,1012.6
2018-08-21T05:18:39.662Z,1012.57
2018-08-21T05:19:39.653Z,1012.57
2018-08-21T05:20:39.641Z,1012.62
2018-08-21T05:21:39.627Z,1012.6
2018-08-21T05:22:39.614Z,1012.56
2018-08-21T05:23:39.604Z,1012.56
2018-08-21T05:24:39.604Z,1012.59
2018-08-21T05:25:39.583Z,1012.56
2018-08-21T05:26:39.577Z,1012.61
2018-08-21T05:27:39.556Z,1012.64
2018-08-21T05:28:39.561Z,1012.66
2018-08-21T05:29:39.536Z,1012.64
2018-08-21T05:30:39.522Z,1012.66
2018-08-21T05:31:39.508Z,1012.7
2018-08-21T05:32:39.497Z,1012.71
2018-08-21T05:33:39.483Z,1012.68
2018-08-21T05:34:39.475Z,1012.69
2018-08-21T05:35:39.461Z,1012.75
2018-08-21T05:36:39.454Z,1012.75
2018-08-21T05:37:39.442Z,1012.75
2018-08-21T05:38:39.425Z,1012.77
2018-08-21T05:39:39.413Z,1012.81
2018-08-21T05:40:39.400Z,1012.8
2018-08-21T05:41:39.396Z,1012.83
2018-08-21T05:42:39.380Z,1012.84
2018-08-21T05:43:39.396Z,1012.86
2018-08-21T05:44:39.355Z,1012.81
2018-08-21T05:45:39.344Z,1012.81
2018-08-21T05:46:39.340Z,1012.83
2018-08-21T05:47:39.321Z,1012.85
2018-08-21T05:48:39.308Z,1012.83
2018-08-21T05:49:39.299Z,1012.83
2018-08-21T05:50:39.294Z,1012.83
2018-08-21T05:51:39.276Z,1012.85
2018-08-21T05:52:39.266Z,1012.84
2018-08-21T05:53:39.254Z,1012.87
2018-08-21T05:54:39.250Z,1012.86
2018-08-21T05:55:39.264Z,1012.85
2018-08-21T05:56:39.219Z,1012.86
2018-08-21T05:57:39.210Z,1012.86
2018-08-21T05:58:39.198Z,1012.86
2018-08-21T05:59:39.185Z,1012.9
2018-08-21T06:00:39.178Z,1012.89
2018-08-21T06:01:39.163Z,1012.87
2018-08-21T06:02:39.152Z,1012.89
2018-08-21T06:03:39.142Z,1012.89
2018-08-21T06:04:39.132Z,1012.91
2018-08-21T06:05:39.118Z,1012.88
2018-08-21T06:06:39.108Z,1012.89
2018-08-21T06:07:39.096Z,1012.84
2018-08-21T06:08:39.088Z,1012.87
2018-08-21T06:09:39.074Z,1012.92
2018-08-21T06:10:39.065Z,1012.91
2018-08-21T06:11:39.054Z,1012.87
2018-08-21T06:12:39.048Z,1012.92
2018-08-21T06:13:39.032Z,1012.9
2018-08-21T06:14:39.025Z,1012.88
2018-08-21T06:15:39.006Z,1012.88
2018-08-21T06:16:38.999Z,1012.89
2018-08-21T06:17:38.993Z,1012.92
2018-08-21T06:18:38.977Z,1012.91
2018-08-21T06:19:38.964Z,1012.91
2018-08-21T06:20:38.953Z,1012.88
2018-08-21T06:21:38.947Z,1012.89
2018-08-21T06:22:38.932Z,1012.91
2018-08-21T06:23:38.925Z,1012.89
2018-08-21T06:24:38.910Z,1012.89
2018-08-21T06:25:38.904Z,1012.92
2018-08-21T06:26:38.889Z,1012.92
2018-08-21T06:27:38.891Z,1012.92
2018-08-21T06:28:38.868Z,1012.93
2018-08-21T06:29:38.866Z,1012.93
2018-08-21T06:30:38.849Z,1012.91
2018-08-21T06:31:38.852Z,1012.9
2018-08-21T06:32:38.825Z,1012.97
2018-08-21T06:33:38.821Z,1012.95
2018-08-21T06:34:38.802Z,1012.96
2018-08-21T06:35:38.792Z,1012.99
2018-08-21T06:36:38.780Z,1012.96
2018-08-21T06:37:38.790Z,1012.91
2018-08-21T06:38:38.761Z,1012.94
2018-08-21T06:39:38.776Z,1012.95
2018-08-21T06:40:38.736Z,1012.96
2018-08-21T06:41:38.750Z,1012.96
2018-08-21T06:42:38.714Z,1012.98
2018-08-21T06:43:38.710Z,1012.97
2018-08-21T06:44:38.693Z,1012.99
2018-08-21T06:45:38.685Z,1012.98
2018-08-21T06:46:38.748Z,1012.98
2018-08-21T06:47:38.660Z,1013.03
2018-08-21T06:48:38.655Z,1013.02
2018-08-21T06:49:38.638Z,1012.99
2018-08-21T06:50:38.630Z,1012.96
2018-08-21T06:51:38.619Z,1012.98
2018-08-21T06:52:38.608Z,1012.95
2018-08-21T06:53:38.596Z,1012.96
2018-08-21T06:54:38.587Z,1012.93
2018-08-21T06:55:38.576Z,1012.97
2018-08-21T06:56:38.566Z,1012.96
2018-08-21T06:57:38.555Z,1012.96
2018-08-21T06:58:38.554Z,1012.99
2018-08-21T06:59:38.535Z,1012.98
2018-08-21T07:00:38.527Z,1013.03
2018-08-21T07:01:38.511Z,1013.03
2018-08-21T07:02:38.502Z,1013.05
2018-08-21T07:03:38.492Z,1013.07
2018-08-21T07:04:38.481Z,1013.08
2018-08-21T07:05:38.474Z,1013.08
2018-08-21T07:06:38.461Z,1013.05
2018-08-21T07:07:38.450Z,1013.04
2018-08-21T07:08:38.439Z,1013.06
2018-08-21T07:09:38.429Z,1013.02
2018-08-21T07:10:38.419Z,1013.03
2018-08-21T07:11:38.408Z,1013.05
2018-08-21T07:12:38.399Z,1013.06
2018-08-21T07:13:38.391Z,1013.08
2018-08-21T07:14:38.379Z,1013.11
2018-08-21T07:15:38.369Z,1013.12
2018-08-21T07:16:38.365Z,1013.15
2018-08-21T07:17:38.351Z,1013.22
2018-08-21T07:18:38.339Z,1013.22
2018-08-21T07:19:38.339Z,1013.19
2018-08-21T07:20:38.322Z,1013.22
2018-08-21T07:21:38.310Z,1013.21
2018-08-21T07:22:38.299Z,1013.21
2018-08-21T07:23:38.285Z,1013.24
2018-08-21T07:24:38.277Z,1013.21
2018-08-21T07:25:38.266Z,1013.27
2018-08-21T07:26:38.255Z,1013.25
2018-08-21T07:27:38.246Z,1013.27
2018-08-21T07:28:38.235Z,1013.21
2018-08-21T07:29:38.229Z,1013.25
2018-08-21T07:30:38.216Z,1013.21
2018-08-21T07:31:38.207Z,1013.18
2018-08-21T07:32:38.247Z,1013.21
2018-08-21T07:33:38.188Z,1013.18
2018-08-21T07:34:38.178Z,1013.22
2018-08-21T07:35:38.214Z,1013.24
2018-08-21T07:36:38.157Z,1013.21
2018-08-21T07:37:38.146Z,1013.23
2018-08-21T07:38:38.137Z,1013.21
2018-08-21T07:39:38.127Z,1013.22
2018-08-21T07:40:38.123Z,1013.24
2018-08-21T07:41:38.106Z,1013.22
2018-08-21T07:42:38.097Z,1013.21
2018-08-21T07:43:38.089Z,1013.27
2018-08-21T07:44:38.079Z,1013.28
2018-08-21T07:45:38.068Z,1013.27
2018-08-21T07:46:38.062Z,1013.26
2018-08-21T07:47:38.050Z,1013.33
2018-08-21T07:48:38.040Z,1013.27
2018-08-21T07:49:38.029Z,1013.31
2018-08-21T07:50:38.020Z,1013.31
2018-08-21T07:51:38.013Z,1013.33
2018-08-21T07:52:38.001Z,1013.34
2018-08-21T07:53:37.990Z,1013.36
2018-08-21T07:54:37.982Z,1013.36
2018-08-21T07:55:37.973Z,1013.32
2018-08-21T07:56:37.960Z,1013.35
2018-08-21T07:57:37.955Z,1013.35
2018-08-21T07:58:37.944Z,1013.38
2018-08-21T07:59:37.933Z,1013.4
2018-08-21T08:00:37.923Z,1013.39
2018-08-21T08:01:37.923Z,1013.37
2018-08-21T08:02:37.905Z,1013.38
2018-08-21T08:03:37.896Z,1013.38
2018-08-21T08:04:37.889Z,1013.38
2018-08-21T08:05:37.876Z,1013.37
2018-08-21T08:06:37.865Z,1013.41
2018-08-21T08:07:37.860Z,1013.42
2018-08-21T08:08:37.847Z,1013.44
2018-08-21T08:09:37.840Z,1013.46
2018-08-21T08:10:37.829Z,1013.45
2018-08-21T08:11:37.819Z,1013.47
2018-08-21T08:12:37.810Z,1013.45
2018-08-21T08:13:37.851Z,1013.45
2018-08-21T08:14:37.792Z,1013.45
2018-08-21T08:15:37.786Z,1013.4
2018-08-21T08:16:37.772Z,1013.47
2018-08-21T08:17:37.765Z,1013.45
2018-08-21T08:18:37.757Z,1013.44
2018-08-21T08:19:37.748Z,1013.42
2018-08-21T08:20:37.748Z,1013.43
2018-08-21T08:21:37.727Z,1013.42
2018-08-21T08:22:37.720Z,1013.48
2018-08-21T08:23:37.736Z,1013.46
2018-08-21T08:24:37.705Z,1013.51
2018-08-21T08:25:37.691Z,1013.55
2018-08-21T08:26:37.683Z,1013.56
2018-08-21T08:27:37.673Z,1013.55
2018-08-21T08:28:37.664Z,1013.51
2018-08-21T08:29:37.655Z,1013.53
2018-08-21T08:30:37.646Z,1013.56
2018-08-21T08:31:37.638Z,1013.53
2018-08-21T08:32:37.632Z,1013.52
2018-08-21T08:33:37.620Z,1013.53
2018-08-21T08:34:37.660Z,1013.55
2018-08-21T08:35:37.611Z,1013.54
2018-08-21T08:36:37.596Z,1013.54
2018-08-21T08:37:37.586Z,1013.54
2018-08-21T08:38:37.577Z,1013.53
2018-08-21T08:39:37.570Z,1013.56
2018-08-21T08:40:37.559Z,1013.57
2018-08-21T08:41:37.691Z,1013.56
2018-08-21T08:42:37.541Z,1013.53
2018-08-21T08:43:37.531Z,1013.51
2018-08-21T08:44:37.525Z,1013.53
2018-08-21T08:45:37.515Z,1013.52
2018-08-21T08:46:37.507Z,1013.53
2018-08-21T08:47:37.519Z,1013.55
2018-08-21T08:48:37.490Z,1013.48
2018-08-21T08:49:37.484Z,1013.51
2018-08-21T08:50:37.473Z,1013.51
2018-08-21T08:51:37.666Z,1013.52
2018-08-21T08:52:37.457Z,1013.5
2018-08-21T08:53:37.453Z,1013.49
2018-08-21T08:54:37.440Z,1013.5
2018-08-21T08:55:37.431Z,1013.53
2018-08-21T08:56:37.426Z,1013.52
2018-08-21T08:57:37.418Z,1013.48
2018-08-21T08:58:37.494Z,1013.54
2018-08-21T08:59:37.397Z,1013.54
2018-08-21T09:00:37.393Z,1013.51
2018-08-21T09:01:37.383Z,1013.54
2018-08-21T09:02:37.378Z,1013.52
2018-08-21T09:03:37.365Z,1013.52
2018-08-21T09:04:37.360Z,1013.51
2018-08-21T09:05:37.350Z,1013.5
2018-08-21T09:06:37.344Z,1013.49
2018-08-21T09:07:37.332Z,1013.48
2018-08-21T09:08:37.324Z,1013.48
2018-08-21T09:09:37.318Z,1013.5
2018-08-21T09:10:37.309Z,1013.51
2018-08-21T09:11:37.303Z,1013.47
2018-08-21T09:12:37.296Z,1013.47
2018-08-21T09:13:37.286Z,1013.46
2018-08-21T09:14:37.279Z,1013.48
2018-08-21T09:15:37.272Z,1013.47
2018-08-21T09:16:37.262Z,1013.44
2018-08-21T09:17:37.309Z,1013.42
2018-08-21T09:18:37.247Z,1013.38
2018-08-21T09:19:37.241Z,1013.4
2018-08-21T09:20:37.239Z,1013.39
2018-08-21T09:21:37.228Z,1013.4
2018-08-21T09:22:37.219Z,1013.39
2018-08-21T09:23:37.222Z,1013.38
2018-08-21T09:24:37.205Z,1013.34
2018-08-21T09:25:37.198Z,1013.36
2018-08-21T09:26:37.190Z,1013.37
2018-08-21T09:27:37.189Z,1013.38
2018-08-21T09:28:37.176Z,1013.37
2018-08-21T09:29:37.250Z,1013.38
2018-08-21T09:30:37.164Z,1013.37
2018-08-21T09:31:37.158Z,1013.39
2018-08-21T09:32:37.153Z,1013.38
2018-08-21T09:33:37.145Z,1013.37
2018-08-21T09:34:37.137Z,1013.36
2018-08-21T09:35:37.130Z,1013.42
2018-08-21T09:36:37.125Z,1013.41
2018-08-21T09:37:37.121Z,1013.42
2018-08-21T09:38:37.117Z,1013.37
2018-08-21T09:39:37.105Z,1013.36
2018-08-21T09:40:37.101Z,1013.4
2018-08-21T09:41:37.091Z,1013.39
2018-08-21T09:42:37.085Z,1013.35
2018-08-21T09:43:37.107Z,1013.34
2018-08-21T09:44:37.076Z,1013.33
2018-08-21T09:45:37.068Z,1013.29
2018-08-21T09:46:37.060Z,1013.32
2018-08-21T09:47:37.056Z,1013.31
2018-08-21T09:48:37.058Z,1013.3
2018-08-21T09:49:37.042Z,1013.31
2018-08-21T09:50:37.036Z,1013.31
2018-08-21T09:51:37.050Z,1013.32
2018-08-21T09:52:37.026Z,1013.31
2018-08-21T09:53:37.018Z,1013.31
2018-08-21T09:54:37.011Z,1013.29
2018-08-21T09:55:37.007Z,1013.3
2018-08-21T09:56:36.999Z,1013.28
2018-08-21T09:57:36.994Z,1013.27
2018-08-21T09:58:36.992Z,1013.29
2018-08-21T09:59:36.981Z,1013.32
2018-08-21T10:00:36.974Z,1013.33
2018-08-21T10:01:36.971Z,1013.34
2018-08-21T10:02:36.965Z,1013.3
2018-08-21T10:03:36.958Z,1013.29
2018-08-21T10:04:36.949Z,1013.26
2018-08-21T10:05:36.944Z,1013.27
2018-08-21T10:06:36.976Z,1013.32
2018-08-21T10:07:36.932Z,1013.3
2018-08-21T10:08:36.926Z,1013.23
2018-08-21T10:09:36.920Z,1013.28
2018-08-21T10:10:36.917Z,1013.28
2018-08-21T10:11:36.907Z,1013.26
2018-08-21T10:12:36.908Z,1013.21
2018-08-21T10:13:36.954Z,1013.23
2018-08-21T10:14:36.891Z,1013.21
2018-08-21T10:15:36.882Z,1013.19
2018-08-21T10:16:36.878Z,1013.17
2018-08-21T10:17:36.872Z,1013.19
2018-08-21T10:18:36.864Z,1013.19
2018-08-21T10:19:36.859Z,1013.17
2018-08-21T10:20:36.852Z,1013.15
2018-08-21T10:21:36.847Z,1013.14
2018-08-21T10:22:36.841Z,1013.16
2018-08-21T10:23:36.841Z,1013.17
2018-08-21T10:24:36.833Z,1013.19
2018-08-21T10:25:36.823Z,1013.16
2018-08-21T10:26:36.820Z,1013.15
2018-08-21T10:27:36.809Z,1013.14
2018-08-21T10:28:36.804Z,1013.12
2018-08-21T10:29:36.801Z,1013.1
2018-08-21T10:30:36.793Z,1013.1
2018-08-21T10:31:36.786Z,1013.12
2018-08-21T10:32:36.781Z,1013.11
2018-08-21T10:33:36.773Z,1013.13
2018-08-21T10:34:36.768Z,1013.13
2018-08-21T10:35:36.763Z,1013.12
2018-08-21T10:36:36.758Z,1013.21
2018-08-21T10:37:36.752Z,1013.13
2018-08-21T10:38:36.746Z,1013.12
2018-08-21T10:39:36.744Z,1013.07
2018-08-21T10:40:36.735Z,1013.06
2018-08-21T10:41:36.731Z,1013.05
2018-08-21T10:42:36.727Z,1013.02
2018-08-21T10:43:36.723Z,1013.05
2018-08-21T10:44:36.717Z,1013.01
2018-08-21T10:45:36.714Z,1012.99
2018-08-21T10:46:36.712Z,1013.02
2018-08-21T10:47:36.703Z,1013.07
2018-08-21T10:48:36.699Z,1013.06
2018-08-21T10:49:36.693Z,1013.1
2018-08-21T10:50:36.692Z,1013.07
2018-08-21T10:51:36.945Z,1013.05
2018-08-21T10:52:36.686Z,1013.06
2018-08-21T10:53:36.682Z,1013.04
2018-08-21T10:54:36.680Z,1013.02
2018-08-21T10:55:36.681Z,1013.02
2018-08-21T10:56:36.680Z,1013.05
2018-08-21T10:57:36.677Z,1012.97
2018-08-21T10:58:36.671Z,1012.91
2018-08-21T10:59:36.671Z,1012.93
2018-08-21T11:00:36.670Z,1012.91
2018-08-21T11:01:36.667Z,1012.81
2018-08-21T11:02:36.666Z,1012.83
2018-08-21T11:03:36.664Z,1012.89
2018-08-21T11:04:36.665Z,1012.91
2018-08-21T11:05:36.663Z,1012.95
2018-08-21T11:06:36.662Z,1012.99
2018-08-21T11:07:36.665Z,1012.94
2018-08-21T11:08:36.669Z,1012.98
2018-08-21T11:09:36.660Z,1013.09
2018-08-21T11:10:36.664Z,1013.08
2018-08-21T11:11:36.664Z,1013.02
2018-08-21T11:12:36.727Z,1013.05
2018-08-21T11:13:36.666Z,1013.15
2018-08-21T11:14:36.669Z,1013.09
2018-08-21T11:15:36.667Z,1013.03
2018-08-21T11:16:36.668Z,1012.96
2018-08-21T11:17:36.670Z,1012.94
2018-08-21T11:18:36.672Z,1012.96
2018-08-21T11:19:36.677Z,1012.93
2018-08-21T11:20:36.675Z,1012.94
2018-08-21T11:21:36.753Z,1012.89
2018-08-21T11:22:36.681Z,1012.84
2018-08-21T11:23:36.683Z,1012.81
2018-08-21T11:24:36.684Z,1012.83
2018-08-21T11:25:36.695Z,1012.83
2018-08-21T11:26:36.689Z,1012.85
2018-08-21T11:27:36.692Z,1012.83
2018-08-21T11:28:36.693Z,1012.85
2018-08-21T11:29:36.698Z,1012.82
2018-08-21T11:30:36.699Z,1012.79
2018-08-21T11:31:36.705Z,1012.79
2018-08-21T11:32:36.703Z,1012.81
2018-08-21T11:33:36.722Z,1012.75
2018-08-21T11:34:36.708Z,1012.75
2018-08-21T11:35:36.706Z,1012.83
2018-08-21T11:36:36.710Z,1012.81
2018-08-21T11:37:36.712Z,1012.83
2018-08-21T11:38:36.713Z,1012.82
2018-08-21T11:39:36.713Z,1012.8
2018-08-21T11:40:36.719Z,1012.82
2018-08-21T11:41:36.719Z,1012.75
2018-08-21T11:42:36.718Z,1012.74
2018-08-21T11:43:36.721Z,1012.75
2018-08-21T11:44:36.777Z,1012.78
2018-08-21T11:45:36.731Z,1012.73
2018-08-21T11:46:36.729Z,1012.73
2018-08-21T11:47:36.727Z,1012.73
2018-08-21T11:48:36.748Z,1012.73
2018-08-21T11:49:36.737Z,1012.74
2018-08-21T11:50:36.743Z,1012.74
2018-08-21T11:51:36.734Z,1012.73
2018-08-21T11:52:36.734Z,1012.76
2018-08-21T11:53:36.738Z,1012.77
2018-08-21T11:54:36.740Z,1012.75
2018-08-21T11:55:36.740Z,1012.74
2018-08-21T11:56:36.747Z,1012.7
2018-08-21T11:57:36.741Z,1012.7
2018-08-21T11:58:36.742Z,1012.68
2018-08-21T11:59:36.743Z,1012.67
2018-08-21T12:00:36.744Z,1012.61
2018-08-21T12:01:36.744Z,1012.79
2018-08-21T12:02:36.745Z,1012.71
2018-08-21T12:03:36.746Z,1012.61
2018-08-21T12:04:36.751Z,1012.65
2018-08-21T12:05:36.749Z,1012.58
2018-08-21T12:06:36.751Z,1012.64
2018-08-21T12:07:36.755Z,1012.57